Time;durP1;ratioP1;P1;durP2;ratioP2;P2;SDS_P1;SDS_P2;PMS_P1;PMS_P2;Temp;Humidity;BMP_temperature;BMP_pressure;BME280_temperature;BME280_humidity;BME280_pressure;Samples;Min_cycle;Max_cycle;Signal;HPM_P1;HPM_P2
2022/05/22 00:02:07;;;;;;;5.25;3.17;;;10.60;99.90;;;;;;5036489;28;20044;-72
2022/05/22 00:04:33;;;;;;;9.80;3.72;;;10.50;99.90;;;;;;5019253;28;20056;-72
2022/05/22 00:06:59;;;;;;;4.05;2.42;;;10.50;99.90;;;;;;5038083;28;20052;-72
2022/05/22 00:09:28;;;;;;;4.82;2.85;;;10.50;99.90;;;;;;5038358;28;20071;-72
2022/05/22 00:11:54;;;;;;;3.55;2.78;;;10.50;99.90;;;;;;5039565;28;20048;-72
2022/05/22 00:14:21;;;;;;;8.02;4.55;;;10.50;99.90;;;;;;5038022;28;20072;-72
2022/05/22 00:16:47;;;;;;;6.93;3.58;;;10.60;99.90;;;;;;5038017;28;20044;-72
2022/05/22 00:19:26;;;;;;;7.00;3.03;;;10.50;99.90;;;;;;5020333;28;20057;-72
2022/05/22 00:21:52;;;;;;;3.50;3.00;;;10.50;99.90;;;;;;5039213;28;20041;-72
2022/05/22 00:24:22;;;;;;;11.35;4.47;;;10.50;99.90;;;;;;5038866;28;20056;-71
2022/05/22 00:26:48;;;;;;;7.65;3.70;;;10.50;99.90;;;;;;5039610;28;20074;-71
2022/05/22 00:29:14;;;;;;;13.00;4.10;;;10.50;99.90;;;;;;5039057;28;20832;-72
2022/05/22 00:31:42;;;;;;;7.78;4.05;;;10.40;99.90;;;;;;5021670;28;20119;-72
2022/05/22 00:34:08;;;;;;;6.32;3.72;;;10.50;99.90;;;;;;5040075;28;20056;-74
2022/05/22 00:36:34;;;;;;;3.97;3.35;;;10.50;99.90;;;;;;5039622;28;20061;-74
2022/05/22 00:38:59;;;;;;;6.45;4.05;;;10.50;99.90;;;;;;5021558;28;20053;-74
2022/05/22 00:41:25;;;;;;;7.72;3.97;;;10.50;99.90;;;;;;5039237;28;20044;-74
2022/05/22 00:43:53;;;;;;;5.07;3.10;;;10.40;99.90;;;;;;5039323;28;20045;-71
2022/05/22 00:46:21;;;;;;;7.10;3.97;;;10.40;99.90;;;;;;5038717;28;20060;-71
2022/05/22 00:48:50;;;;;;;8.85;3.47;;;10.40;99.90;;;;;;5038962;28;20095;-71
2022/05/22 00:51:30;;;;;;;9.85;4.00;;;10.40;99.90;;;;;;5039493;28;20092;-72
2022/05/22 00:54:06;;;;;;;7.25;3.28;;;10.40;99.90;;;;;;5038964;28;20055;-72
2022/05/22 00:56:38;;;;;;;6.45;3.95;;;10.40;99.90;;;;;;5039788;28;20045;-72
2022/05/22 00:59:11;;;;;;;8.20;3.90;;;10.40;99.90;;;;;;5039775;28;20129;-72
2022/05/22 01:01:38;;;;;;;7.28;3.63;;;10.40;99.90;;;;;;5005798;28;20064;-71
2022/05/22 01:04:07;;;;;;;3.20;2.90;;;10.30;99.90;;;;;;5042873;28;20053;-72
2022/05/22 01:06:33;;;;;;;6.28;3.17;;;10.30;99.90;;;;;;5043049;28;20133;-72
2022/05/22 01:08:58;;;;;;;5.38;3.70;;;10.30;99.90;;;;;;5008697;28;20053;-72
2022/05/22 01:11:29;;;;;;;5.07;3.90;;;10.50;99.90;;;;;;5025785;28;20060;-73
2022/05/22 01:14:03;;;;;;;4.05;2.90;;;10.20;99.90;;;;;;5043385;28;20106;-72
2022/05/22 01:16:29;;;;;;;5.72;3.45;;;10.20;99.90;;;;;;5042250;28;20052;-72
2022/05/22 01:18:57;;;;;;;5.43;3.47;;;10.20;99.90;;;;;;5042292;28;20081;-73
2022/05/22 01:21:29;;;;;;;8.27;4.20;;;10.20;99.90;;;;;;5040626;28;20052;-72
2022/05/22 01:23:55;;;;;;;10.23;4.05;;;10.10;99.90;;;;;;5041711;28;20077;-73
2022/05/22 01:26:24;;;;;;;6.50;4.13;;;10.10;99.90;;;;;;5042114;28;20379;-73
2022/05/22 01:28:50;;;;;;;8.35;4.38;;;10.10;99.90;;;;;;5041662;28;20057;-72
2022/05/22 01:31:16;;;;;;;6.85;4.57;;;10.10;99.90;;;;;;5042615;28;20152;-72
2022/05/22 01:33:42;;;;;;;7.75;3.80;;;10.10;99.90;;;;;;5042161;28;20052;-73
2022/05/22 01:36:09;;;;;;;6.65;3.55;;;10.10;99.90;;;;;;5042076;28;20079;-72
2022/05/22 01:38:35;;;;;;;7.38;4.00;;;10.10;99.90;;;;;;5040527;28;20049;-72
2022/05/22 01:41:01;;;;;;;6.65;3.72;;;10.00;99.90;;;;;;5040653;28;20763;-72
2022/05/22 01:43:27;;;;;;;5.82;3.00;;;10.00;99.90;;;;;;5040502;28;20161;-71
2022/05/22 01:45:54;;;;;;;8.32;4.93;;;10.00;99.90;;;;;;5041209;28;20774;-72
2022/05/22 01:48:22;;;;;;;4.18;3.40;;;9.90;99.90;;;;;;5041044;28;20052;-72
2022/05/22 01:50:47;;;;;;;8.30;4.40;;;10.00;99.90;;;;;;5023764;28;20153;-72
2022/05/22 01:53:14;;;;;;;8.10;3.55;;;9.90;99.90;;;;;;5041556;28;20424;-72
2022/05/22 01:55:40;;;;;;;8.80;4.63;;;9.90;99.90;;;;;;5022342;28;20052;-72
2022/05/22 01:58:06;;;;;;;7.70;4.28;;;9.90;99.90;;;;;;5023624;28;20052;-73
2022/05/22 02:00:33;;;;;;;7.25;4.22;;;9.90;99.90;;;;;;5041465;28;20122;-71
2022/05/22 02:03:00;;;;;;;6.13;4.13;;;9.80;99.90;;;;;;5041092;28;20052;-72
2022/05/22 02:05:26;;;;;;;6.45;4.75;;;9.90;99.90;;;;;;5041697;28;20059;-73
2022/05/22 02:10:37;;;;;;;6.70;4.28;;;9.80;99.90;;;;;;5041722;28;20140;-72
2022/05/22 02:13:03;;;;;;;5.88;3.90;;;9.70;99.90;;;;;;5040808;28;20091;-73
2022/05/22 02:15:29;;;;;;;6.20;3.90;;;9.80;99.90;;;;;;5040644;28;20148;-71
2022/05/22 02:17:56;;;;;;;6.18;3.55;;;9.80;99.90;;;;;;5041519;28;20489;-72
2022/05/22 02:20:23;;;;;;;6.53;3.58;;;9.70;99.90;;;;;;5023339;28;20053;-72
2022/05/22 02:22:51;;;;;;;6.35;4.88;;;9.70;99.90;;;;;;5022728;28;20056;-73
2022/05/22 02:25:28;;;;;;;4.93;3.65;;;9.70;99.90;;;;;;5022920;28;20143;-72
2022/05/22 02:27:54;;;;;;;8.18;4.75;;;9.60;99.90;;;;;;5041404;28;20056;-72
2022/05/22 02:30:24;;;;;;;5.32;4.40;;;9.50;99.90;;;;;;5022956;28;20679;-72
2022/05/22 02:32:49;;;;;;;9.50;5.00;;;9.50;99.90;;;;;;5040545;28;20059;-72
2022/05/22 02:35:16;;;;;;;7.10;4.47;;;9.50;99.90;;;;;;5041014;28;20056;-72
2022/05/22 02:37:46;;;;;;;8.68;4.38;;;9.50;99.90;;;;;;5040498;28;20152;-72
2022/05/22 02:40:14;;;;;;;7.00;5.20;;;9.40;99.90;;;;;;5040431;28;20143;-72
2022/05/22 02:42:46;;;;;;;13.32;4.03;;;9.40;99.90;;;;;;5040625;28;20755;-72
2022/05/22 02:45:13;;;;;;;9.02;4.53;;;9.40;99.90;;;;;;5022253;28;20057;-73
2022/05/22 02:47:39;;;;;;;5.93;3.97;;;9.30;99.90;;;;;;5040152;28;20143;-73
2022/05/22 02:50:06;;;;;;;5.82;4.88;;;9.20;99.90;;;;;;5022668;28;20053;-72
2022/05/22 02:52:32;;;;;;;8.27;4.35;;;9.20;99.90;;;;;;5022350;28;20060;-73
2022/05/22 02:54:58;;;;;;;6.80;4.63;;;9.20;99.90;;;;;;5040133;28;20064;-72
2022/05/22 02:57:25;;;;;;;6.90;5.30;;;9.20;99.90;;;;;;5040911;28;20439;-72
2022/05/22 02:59:52;;;;;;;5.13;3.88;;;9.20;99.90;;;;;;5040493;28;20061;-72
2022/05/22 03:02:18;;;;;;;7.18;4.63;;;9.10;99.90;;;;;;5022980;28;20051;-71
2022/05/22 03:04:44;;;;;;;5.18;4.45;;;9.20;99.90;;;;;;5039981;28;20147;-72
2022/05/22 03:07:12;;;;;;;6.45;3.33;;;9.10;99.90;;;;;;5040803;28;20615;-73
2022/05/22 03:09:40;;;;;;;8.75;5.75;;;9.10;99.90;;;;;;5022298;28;20384;-71
2022/05/22 03:12:24;;;;;;;11.05;5.13;;;9.10;99.90;;;;;;5022177;28;20739;-73
2022/05/22 03:14:52;;;;;;;8.82;3.83;;;9.10;99.90;;;;;;5039936;28;20135;-72
2022/05/22 03:17:19;;;;;;;5.78;3.80;;;9.10;99.90;;;;;;5039200;28;20697;-71
2022/05/22 03:19:44;;;;;;;7.78;5.40;;;9.10;99.90;;;;;;5021473;28;20063;-72
2022/05/22 03:22:11;;;;;;;8.20;4.78;;;9.20;99.90;;;;;;5039670;28;20041;-72
2022/05/22 03:24:38;;;;;;;5.03;4.07;;;9.20;99.90;;;;;;5038797;28;20084;-73
2022/05/22 03:27:10;;;;;;;4.95;3.65;;;9.30;99.90;;;;;;5021515;28;20049;-71
2022/05/22 03:29:40;;;;;;;6.10;4.78;;;9.30;99.90;;;;;;5039553;28;20114;-73
2022/05/22 03:32:07;;;;;;;7.88;4.10;;;9.30;99.90;;;;;;5021837;28;20393;-73
2022/05/22 03:34:33;;;;;;;5.28;3.58;;;9.20;99.90;;;;;;5021557;28;20133;-73
2022/05/22 03:36:59;;;;;;;9.55;5.13;;;9.10;99.90;;;;;;5005558;28;20065;-71
2022/05/22 03:39:26;;;;;;;6.72;5.00;;;9.20;99.90;;;;;;5039718;28;20516;-73
2022/05/22 03:41:51;;;;;;;6.13;4.65;;;9.20;99.90;;;;;;5039277;28;20091;-73
2022/05/22 03:44:17;;;;;;;7.32;4.40;;;9.10;99.90;;;;;;5039365;28;20056;-73
2022/05/22 03:46:44;;;;;;;5.57;3.58;;;9.20;99.90;;;;;;5021146;28;20064;-71
2022/05/22 03:49:10;;;;;;;6.55;4.65;;;9.20;99.90;;;;;;5021871;28;20045;-72
2022/05/22 03:51:36;;;;;;;5.50;4.88;;;9.20;99.90;;;;;;5037865;28;20949;-73
2022/05/22 03:54:02;;;;;;;6.90;4.43;;;9.30;99.90;;;;;;5035340;28;20057;-72
2022/05/22 03:56:28;;;;;;;10.18;4.30;;;9.30;99.90;;;;;;5036022;28;20199;-72
2022/05/22 03:58:54;;;;;;;7.05;4.68;;;9.30;99.90;;;;;;5017920;28;20140;-72
2022/05/22 04:01:20;;;;;;;8.43;5.82;;;9.40;99.90;;;;;;5036507;28;20049;-72
2022/05/22 04:03:45;;;;;;;9.15;3.83;;;9.40;99.90;;;;;;5018591;28;20616;-73
2022/05/22 04:06:12;;;;;;;5.80;4.45;;;9.30;99.90;;;;;;5035375;28;20056;-72
2022/05/22 04:08:38;;;;;;;5.65;4.43;;;9.30;99.90;;;;;;5036033;28;20080;-71
2022/05/22 04:11:05;;;;;;;4.68;3.30;;;9.20;99.90;;;;;;5036419;28;20049;-72
2022/05/22 04:13:31;;;;;;;5.10;2.88;;;9.20;99.90;;;;;;5016806;28;20049;-73
2022/05/22 04:15:57;;;;;;;6.63;4.35;;;9.30;99.90;;;;;;5016946;28;20147;-73
2022/05/22 04:18:23;;;;;;;8.07;4.47;;;9.40;99.90;;;;;;5014842;28;20756;-73
2022/05/22 04:20:48;;;;;;;6.25;4.07;;;9.50;99.90;;;;;;5016717;28;20057;-74
2022/05/22 04:25:59;;;;;;;6.53;4.55;;;9.60;99.90;;;;;;5036062;28;20572;-71
2022/05/22 04:28:27;;;;;;;5.50;3.70;;;9.60;99.90;;;;;;5035258;28;20497;-72
2022/05/22 04:30:53;;;;;;;3.45;3.15;;;9.80;99.90;;;;;;5035208;28;20064;-72
2022/05/22 04:33:19;;;;;;;7.43;4.47;;;9.80;99.90;;;;;;5036016;28;20060;-71
2022/05/22 04:35:45;;;;;;;9.55;6.25;;;9.90;99.90;;;;;;5039032;28;20455;-73
2022/05/22 04:38:11;;;;;;;6.22;4.40;;;10.00;99.90;;;;;;5024363;28;20051;-73
2022/05/22 04:40:38;;;;;;;7.43;4.00;;;10.00;99.90;;;;;;5041803;28;20450;-72
2022/05/22 04:43:05;;;;;;;5.82;3.75;;;10.00;99.90;;;;;;5042308;28;20063;-72
2022/05/22 04:45:31;;;;;;;9.13;4.90;;;10.20;99.90;;;;;;5006421;28;20144;-72
2022/05/22 04:47:57;;;;;;;4.63;4.22;;;10.30;99.90;;;;;;5042271;28;20127;-72
2022/05/22 04:50:23;;;;;;;6.68;4.55;;;10.30;99.90;;;;;;5041130;28;20049;-72
2022/05/22 04:52:49;;;;;;;5.60;3.92;;;10.30;99.90;;;;;;5041870;28;20800;-72
2022/05/22 04:55:14;;;;;;;10.93;5.03;;;10.40;99.90;;;;;;5022163;28;20048;-71
2022/05/22 04:57:40;;;;;;;5.25;3.40;;;10.50;99.90;;;;;;5038928;28;20049;-72
2022/05/22 05:00:09;;;;;;;7.90;4.40;;;10.70;99.90;;;;;;5039617;28;20080;-72
2022/05/22 05:02:35;;;;;;;7.93;6.05;;;10.60;99.90;;;;;;5038665;28;20072;-72
2022/05/22 05:05:05;;;;;;;8.07;5.32;;;10.70;99.90;;;;;;5039275;28;20049;-72
2022/05/22 05:07:31;;;;;;;6.68;3.90;;;10.70;99.90;;;;;;5039142;28;20518;-72
2022/05/22 05:09:57;;;;;;;8.32;4.90;;;10.70;99.90;;;;;;5004689;28;20045;-72
2022/05/22 05:12:23;;;;;;;8.68;5.13;;;10.80;99.90;;;;;;5040061;28;20087;-72
2022/05/22 05:14:49;;;;;;;5.72;4.88;;;10.80;99.90;;;;;;5039305;28;20507;-72
2022/05/22 05:17:17;;;;;;;8.15;5.22;;;10.90;99.90;;;;;;5039225;28;20052;-72
2022/05/22 05:19:44;;;;;;;9.48;5.28;;;11.00;99.90;;;;;;5021629;28;20041;-72
2022/05/22 05:22:10;;;;;;;14.68;6.32;;;11.00;99.90;;;;;;5038803;28;20045;-72
2022/05/22 05:24:37;;;;;;;9.60;5.13;;;10.60;99.90;;;;;;5020729;28;20056;-72
2022/05/22 05:27:03;;;;;;;11.30;6.13;;;11.20;99.90;;;;;;5004652;28;20049;-73
2022/05/22 05:29:28;;;;;;;12.27;5.55;;;11.20;99.90;;;;;;5039028;28;20095;-72
2022/05/22 05:31:54;;;;;;;12.13;5.88;;;11.30;99.90;;;;;;5021540;28;20057;-72
2022/05/22 05:34:20;;;;;;;14.75;6.35;;;11.40;99.90;;;;;;5039095;28;20056;-72
2022/05/22 05:36:46;;;;;;;10.70;6.00;;;11.50;99.90;;;;;;5039152;28;20064;-72
2022/05/22 05:39:12;;;;;;;12.52;6.22;;;11.60;99.90;;;;;;5039321;28;20049;-71
2022/05/22 05:41:38;;;;;;;13.95;6.78;;;11.80;99.90;;;;;;5039495;28;20044;-72
2022/05/22 05:44:06;;;;;;;10.25;5.75;;;11.90;99.90;;;;;;5039435;28;20056;-72
2022/05/22 05:46:36;;;;;;;10.13;5.85;;;12.00;99.90;;;;;;5038481;28;20052;-71
2022/05/22 05:49:03;;;;;;;9.93;6.30;;;12.10;99.90;;;;;;5019667;28;20049;-72
2022/05/22 05:51:29;;;;;;;9.60;6.40;;;12.20;99.90;;;;;;5021053;28;20052;-71
2022/05/22 05:53:55;;;;;;;10.48;6.68;;;12.30;99.90;;;;;;5037369;28;20102;-72
2022/05/22 05:56:21;;;;;;;12.82;5.70;;;12.40;99.90;;;;;;5004234;28;20146;-72
2022/05/22 05:58:48;;;;;;;7.85;5.25;;;12.50;99.90;;;;;;5038655;28;20048;-71
2022/05/22 06:01:15;;;;;;;9.93;5.97;;;12.60;99.90;;;;;;5038282;28;20054;-72
2022/05/22 06:03:41;;;;;;;15.32;6.15;;;12.70;99.90;;;;;;5020420;28;20053;-72
2022/05/22 06:06:09;;;;;;;18.70;6.72;;;12.80;99.90;;;;;;5020160;28;20378;-72
2022/05/22 06:08:35;;;;;;;11.57;7.22;;;12.90;99.90;;;;;;5038157;28;20531;-72
2022/05/22 06:11:01;;;;;;;13.15;6.75;;;13.00;99.90;;;;;;5038226;28;20096;-71
2022/05/22 06:13:27;;;;;;;12.38;6.65;;;13.20;99.90;;;;;;5038479;28;20065;-72
2022/05/22 06:15:52;;;;;;;11.77;6.38;;;13.30;99.90;;;;;;5037666;28;20049;-73
2022/05/22 06:18:20;;;;;;;16.05;6.70;;;13.50;99.90;;;;;;5037237;28;20879;-72
2022/05/22 06:20:46;;;;;;;10.15;6.03;;;13.70;99.90;;;;;;5036173;28;20095;-72
2022/05/22 06:23:12;;;;;;;11.95;5.75;;;13.80;99.90;;;;;;5018060;28;20067;-73
2022/05/22 06:25:39;;;;;;;9.88;6.32;;;14.00;99.90;;;;;;5035306;28;20080;-72
2022/05/22 06:28:06;;;;;;;12.85;6.00;;;14.50;99.90;;;;;;5035438;28;20041;-72
2022/05/22 06:30:32;;;;;;;7.57;5.25;;;15.80;99.90;;;;;;5035741;28;20069;-72
2022/05/22 06:33:00;;;;;;;12.40;6.45;;;17.00;99.90;;;;;;5017877;28;20049;-73
2022/05/22 06:35:25;;;;;;;11.77;4.82;;;18.20;99.90;;;;;;5035555;28;20586;-73
2022/05/22 06:37:51;;;;;;;9.40;5.13;;;19.40;99.90;;;;;;5017517;28;20045;-74
2022/05/22 06:40:17;;;;;;;10.93;4.70;;;19.80;99.90;;;;;;5035151;28;20045;-73
2022/05/22 06:42:44;;;;;;;12.23;4.53;;;20.60;99.90;;;;;;5017588;28;20115;-72
2022/05/22 06:45:16;;;;;;;10.77;4.60;;;20.90;99.90;;;;;;5016501;28;20576;-74
2022/05/22 06:47:44;;;;;;;7.75;4.82;;;21.00;99.90;;;;;;5035249;28;20111;-74
2022/05/22 06:50:13;;;;;;;9.40;4.57;;;21.30;99.90;;;;;;5034362;28;20095;-73
2022/05/22 06:52:39;;;;;;;8.75;5.05;;;21.90;99.90;;;;;;5033565;28;20045;-73
2022/05/22 06:55:06;;;;;;;11.48;5.30;;;22.30;99.90;;;;;;5016328;28;20067;-73
2022/05/22 06:57:32;;;;;;;7.45;4.60;;;22.50;99.90;;;;;;5035482;28;20168;-73
2022/05/22 06:59:59;;;;;;;11.82;4.93;;;22.90;99.90;;;;;;5037203;28;20538;-73
2022/05/22 07:02:29;;;;;;;8.27;4.60;;;23.20;99.90;;;;;;5039204;28;20056;-73
2022/05/22 07:05:02;;;;;;;8.75;4.05;;;23.80;99.90;;;;;;5021920;28;20049;-73
2022/05/22 07:07:27;;;;;;;9.57;4.07;;;24.30;98.40;;;;;;5038977;28;20473;-74
2022/05/22 07:09:54;;;;;;;7.47;3.90;;;24.60;98.60;;;;;;5039863;28;20055;-73
2022/05/22 07:12:21;;;;;;;7.20;4.25;;;24.50;97.50;;;;;;5039934;28;20110;-73
2022/05/22 07:14:50;;;;;;;8.23;3.60;;;24.60;96.60;;;;;;5039313;28;20136;-73
2022/05/22 07:17:21;;;;;;;5.70;3.33;;;24.20;95.50;;;;;;5040110;28;20052;-74
2022/05/22 07:19:47;;;;;;;8.35;3.63;;;24.80;95.60;;;;;;5039709;28;20516;-73
2022/05/22 07:22:13;;;;;;;8.23;3.50;;;25.00;94.80;;;;;;5027496;28;20057;-73
2022/05/22 07:24:39;;;;;;;9.50;4.47;;;25.50;94.60;;;;;;5016371;28;20053;-74
2022/05/22 07:27:05;;;;;;;6.25;3.55;;;25.70;93.80;;;;;;5018030;28;20060;-74
2022/05/22 07:29:31;;;;;;;7.80;3.47;;;26.00;93.30;;;;;;5032188;28;20065;-74
2022/05/22 07:31:59;;;;;;;9.50;2.90;;;26.30;92.20;;;;;;5018849;28;20154;-73
2022/05/22 07:34:25;;;;;;;7.03;3.35;;;26.20;91.80;;;;;;5036271;28;20063;-74
2022/05/22 07:37:03;;;;;;;5.95;2.50;;;26.70;90.00;;;;;;5036309;28;20059;-74
2022/05/22 07:39:29;;;;;;;7.78;3.90;;;25.80;80.00;;;;;;5036661;28;20883;-74
2022/05/22 07:41:54;;;;;;;5.30;2.90;;;26.00;90.30;;;;;;5036765;28;20057;-74
2022/05/22 07:44:20;;;;;;;5.80;2.80;;;26.50;90.00;;;;;;5036137;28;20092;-74
2022/05/22 07:46:46;;;;;;;5.60;2.65;;;26.60;89.40;;;;;;5017596;28;20056;-74
2022/05/22 07:50:16;;;;;;;5.47;2.63;;;27.10;89.00;;;;;;5037063;28;20056;-74
2022/05/22 07:52:06;;;;;;;5.78;2.92;;;26.80;87.10;;;;;;5036186;28;20060;-73
2022/05/22 07:54:39;;;;;;;5.35;2.72;;;26.50;84.80;;;;;;5035934;28;20132;-74
2022/05/22 07:57:07;;;;;;;7.85;3.22;;;27.10;82.40;;;;;;5037214;28;20052;-74
2022/05/22 07:59:34;;;;;;;7.13;3.22;;;27.50;86.50;;;;;;5036662;28;20191;-74
2022/05/22 08:02:02;;;;;;;5.60;3.35;;;27.50;85.60;;;;;;5036414;28;20055;-73
2022/05/22 08:04:28;;;;;;;6.60;3.15;;;27.70;85.10;;;;;;5036260;28;20219;-76
2022/05/22 08:06:54;;;;;;;9.32;3.63;;;27.50;84.10;;;;;;5034894;28;20443;-74
2022/05/22 08:09:20;;;;;;;4.03;2.35;;;27.10;83.80;;;;;;5001718;28;20052;-74
2022/05/22 08:11:45;;;;;;;6.30;2.75;;;26.30;83.10;;;;;;4666058;28;10000578;-75
2022/05/22 08:14:11;;;;;;;6.03;2.47;;;26.10;83.30;;;;;;5038246;28;20052;-74
2022/05/22 08:16:37;;;;;;;5.60;2.42;;;26.20;81.30;;;;;;5021279;28;20045;-74
2022/05/22 08:19:03;;;;;;;5.57;2.33;;;25.60;81.90;;;;;;5039360;28;20045;-74
2022/05/22 08:21:30;;;;;;;7.95;2.60;;;25.80;82.40;;;;;;5038816;28;20079;-74
2022/05/22 08:23:55;;;;;;;6.53;2.47;;;25.90;82.20;;;;;;4988393;28;20055;-76
2022/05/22 08:26:22;;;;;;;9.73;2.72;;;26.20;82.20;;;;;;4666798;28;9999775;-74
2022/05/22 08:28:48;;;;;;;9.10;2.72;;;26.80;81.70;;;;;;5034782;28;20047;-78
2022/05/22 08:31:14;;;;;;;7.93;3.10;;;26.80;80.30;;;;;;5036888;28;20049;-73
2022/05/22 08:33:40;;;;;;;4.75;2.03;;;26.50;80.80;;;;;;5015927;28;20110;-73
2022/05/22 08:36:06;;;;;;;4.60;2.25;;;25.80;81.80;;;;;;4999931;28;20049;-74
2022/05/22 08:38:32;;;;;;;3.75;2.20;;;24.50;82.90;;;;;;4994272;28;20370;-74
2022/05/22 08:41:18;;;;;;;7.32;2.30;;;24.30;83.20;;;;;;5000019;28;20148;-74
2022/05/22 08:44:02;;;;;;;5.45;2.92;;;23.90;83.10;;;;;;4984809;28;20049;-74
2022/05/22 08:46:41;;;;;;;5.53;2.70;;;23.00;78.50;;;;;;5034910;28;20049;-74
2022/05/22 08:49:21;;;;;;;3.70;2.08;;;22.60;83.90;;;;;;5018026;28;20125;-74
2022/05/22 08:51:53;;;;;;;6.88;2.22;;;23.00;83.00;;;;;;5000768;28;20061;-73
2022/05/22 08:54:34;;;;;;;5.72;2.42;;;24.00;83.60;;;;;;5015287;28;20144;-73
2022/05/22 08:59:50;;;;;;;7.15;2.28;;;26.00;80.60;;;;;;5034537;28;20052;-74
2022/05/22 09:02:30;;;;;;;4.22;1.95;;;25.80;82.20;;;;;;5012118;28;20539;-74
2022/05/22 09:05:06;;;;;;;4.68;1.92;;;25.30;78.60;;;;;;5016405;28;20051;-74
2022/05/22 09:07:53;;;;;;;6.00;2.20;;;24.50;80.60;;;;;;5034092;28;20056;-74
2022/05/22 09:10:40;;;;;;;4.50;1.90;;;23.80;80.40;;;;;;4990364;28;21022;-74
2022/05/22 09:13:24;;;;;;;5.35;2.13;;;23.20;79.70;;;;;;5035510;28;20052;-74
2022/05/22 09:16:05;;;;;;;5.90;1.98;;;23.90;80.80;;;;;;5034136;28;20072;-74
2022/05/22 09:19:11;;;;;;;4.03;1.67;;;24.50;81.50;;;;;;5017526;28;20049;-75
2022/05/22 09:22:15;;;;;;;4.85;2.00;;;25.10;79.80;;;;;;4937480;28;20463;-74
2022/05/22 09:25:04;;;;;;;4.90;2.17;;;25.80;77.90;;;;;;5031718;28;20060;-74
2022/05/22 09:27:41;;;;;;;4.20;1.92;;;26.00;77.50;;;;;;5009774;28;20041;-75
2022/05/22 09:30:28;;;;;;;6.13;2.25;;;25.50;77.80;;;;;;4669242;28;9999848;-75
2022/05/22 09:33:09;;;;;;;5.28;2.05;;;25.20;78.40;;;;;;5035280;28;20087;-74
2022/05/22 09:35:50;;;;;;;3.50;2.35;;;24.30;79.70;;;;;;5035458;28;20413;-74
2022/05/22 09:38:44;;;;;;;7.63;2.22;;;23.50;80.20;;;;;;5033073;28;20123;-74
2022/05/22 09:41:37;;;;;;;6.82;1.80;;;23.50;81.30;;;;;;5034028;28;20590;-74
2022/05/22 09:44:14;;;;;;;5.32;1.80;;;24.30;81.40;;;;;;5037589;28;20064;-75
2022/05/22 09:47:07;;;;;;;3.13;1.70;;;24.70;79.70;;;;;;5040372;28;20056;-73
2022/05/22 09:50:03;;;;;;;2.25;1.38;;;24.70;78.70;;;;;;5039378;28;20041;-73
2022/05/22 09:52:52;;;;;;;3.58;1.30;;;25.30;77.90;;;;;;5037711;28;20172;-73
2022/05/22 09:55:51;;;;;;;1.95;1.60;;;25.60;77.90;;;;;;5037252;28;20064;-74
2022/05/22 09:58:37;;;;;;;3.88;1.50;;;25.70;75.70;;;;;;5037938;28;20060;-74
2022/05/22 10:01:19;;;;;;;5.65;1.58;;;26.20;80.60;;;;;;5037983;28;20131;-74
2022/05/22 10:04:00;;;;;;;3.77;1.40;;;26.60;75.20;;;;;;5037290;28;20123;-74
2022/05/22 10:06:50;;;;;;;3.63;1.50;;;26.70;78.70;;;;;;5038112;28;20222;-74
2022/05/22 10:09:30;;;;;;;3.10;1.90;;;26.70;74.00;;;;;;5019171;28;20118;-73
2022/05/22 10:12:05;;;;;;;4.28;1.98;;;26.00;78.70;;;;;;5037939;28;20067;-72
2022/05/22 10:15:06;;;;;;;3.60;2.22;;;25.40;78.50;;;;;;5037534;28;20078;-72
2022/05/22 10:17:59;;;;;;;2.72;1.90;;;24.40;75.00;;;;;;5035733;28;20051;-73
2022/05/22 10:20:43;;;;;;;3.97;1.60;;;23.60;74.40;;;;;;5037604;28;20537;-73
2022/05/22 10:23:26;;;;;;;3.80;1.55;;;23.40;74.60;;;;;;5037915;28;20053;-73
2022/05/22 10:26:09;;;;;;;2.80;1.77;;;23.60;76.30;;;;;;5037461;28;20064;-74
2022/05/22 10:29:08;;;;;;;4.00;1.70;;;23.80;75.40;;;;;;5033611;28;20044;-75
2022/05/22 10:31:40;;;;;;;3.33;1.30;;;23.60;74.10;;;;;;5033389;28;20049;-73
2022/05/22 10:34:19;;;;;;;4.18;1.90;;;24.00;76.90;;;;;;5015806;28;20119;-74
2022/05/22 10:36:53;;;;;;;6.07;1.83;;;23.90;76.30;;;;;;5033333;28;20064;-72
2022/05/22 10:39:20;;;;;;;4.05;1.60;;;24.00;74.90;;;;;;5036733;28;20033;-73
2022/05/22 10:44:43;;;;;;;3.15;1.23;;;23.80;75.80;;;;;;5037128;28;20111;-74
2022/05/22 10:47:08;;;;;;;2.05;1.50;;;23.80;77.90;;;;;;5037726;28;20053;-74
2022/05/22 10:49:39;;;;;;;1.83;1.02;;;24.00;76.90;;;;;;5020323;28;20045;-73
2022/05/22 10:52:06;;;;;;;3.42;2.08;;;24.10;74.90;;;;;;5037639;28;20053;-74
2022/05/22 10:54:41;;;;;;;4.32;1.48;;;23.80;74.50;;;;;;5032902;28;20122;-73
2022/05/22 10:57:19;;;;;;;4.93;1.63;;;23.30;74.30;;;;;;5035679;28;20060;-73
2022/05/22 10:59:47;;;;;;;6.00;1.75;;;22.80;75.40;;;;;;5036827;28;20048;-72
2022/05/22 11:02:23;;;;;;;4.80;1.70;;;22.40;77.60;;;;;;5019628;28;20049;-72
2022/05/22 11:04:51;;;;;;;2.13;1.40;;;22.30;77.00;;;;;;5019334;28;20041;-73
2022/05/22 11:07:51;;;;;;;3.75;1.50;;;22.20;77.90;;;;;;5037962;28;20056;-73
2022/05/22 11:10:28;;;;;;;4.30;2.00;;;22.30;79.50;;;;;;5021904;28;20068;-74
2022/05/22 11:13:22;;;;;;;2.92;1.35;;;22.30;77.90;;;;;;5037892;28;20157;-73
2022/05/22 11:15:47;;;;;;;7.78;2.35;;;22.20;76.60;;;;;;5034090;28;20144;-72
2022/05/22 11:18:23;;;;;;;5.10;1.70;;;21.90;77.20;;;;;;5037526;28;20044;-72
2022/05/22 11:21:04;;;;;;;2.80;1.67;;;21.70;79.10;;;;;;5036722;28;20157;-72
2022/05/22 11:24:09;;;;;;;6.15;1.88;;;21.70;80.80;;;;;;5035783;28;20049;-72
2022/05/22 11:26:34;;;;;;;11.32;5.35;;;21.80;82.00;;;;;;4984941;28;20614;-73
2022/05/22 11:29:04;;;;;;;3.15;1.60;;;21.80;79.10;;;;;;5035337;28;20033;-73
2022/05/22 11:31:51;;;;;;;2.78;1.50;;;21.70;78.50;;;;;;5035342;28;20167;-72
2022/05/22 11:35:05;;;;;;;2.42;2.03;;;21.80;79.40;;;;;;5000668;28;20053;-73
2022/05/22 11:37:40;;;;;;;3.45;2.05;;;22.10;78.80;;;;;;5021152;28;20060;-73
2022/05/22 11:40:14;;;;;;;3.40;2.22;;;22.20;78.60;;;;;;5015109;28;20052;-74
2022/05/22 11:42:41;;;;;;;7.82;1.75;;;22.10;78.40;;;;;;4994640;28;20048;-72
2022/05/22 11:45:34;;;;;;;2.60;2.20;;;22.10;77.80;;;;;;5033870;28;20037;-72
2022/05/22 11:48:11;;;;;;;3.05;1.60;;;22.30;78.70;;;;;;5012589;28;20049;-73
2022/05/22 11:50:51;;;;;;;1.80;1.63;;;22.20;76.50;;;;;;5032291;28;20041;-72
2022/05/22 11:53:30;;;;;;;3.47;1.50;;;21.90;75.70;;;;;;5032243;28;20049;-73
2022/05/22 11:55:58;;;;;;;5.93;1.65;;;21.80;78.20;;;;;;5030952;28;20591;-73
2022/05/22 11:58:36;;;;;;;4.68;1.52;;;22.00;80.70;;;;;;5033018;28;20155;-74
2022/05/22 12:01:13;;;;;;;3.10;1.88;;;22.20;78.90;;;;;;5031316;28;20156;-73
2022/05/22 12:04:21;;;;;;;3.65;2.22;;;22.40;78.40;;;;;;5015936;28;20053;-73
2022/05/22 12:07:04;;;;;;;2.25;1.50;;;22.70;80.70;;;;;;5014888;28;20060;-73
2022/05/22 12:09:52;;;;;;;3.67;1.73;;;22.70;79.70;;;;;;5016398;28;20057;-73
2022/05/22 12:12:17;;;;;;;3.88;1.58;;;23.10;78.30;;;;;;5032428;28;20045;-73
2022/05/22 12:15:22;;;;;;;4.28;1.98;;;23.30;79.50;;;;;;5011953;28;20052;-74
2022/05/22 12:18:10;;;;;;;3.00;1.60;;;23.40;78.20;;;;;;4933665;28;20092;-74
2022/05/22 12:20:45;;;;;;;5.28;1.63;;;23.10;78.50;;;;;;4945917;28;20054;-74
2022/05/22 12:23:20;;;;;;;6.18;2.20;;;23.30;78.50;;;;;;5007283;28;20080;-73
2022/05/22 12:25:59;;;;;;;5.57;1.75;;;23.40;78.30;;;;;;5025589;28;20175;-73
2022/05/22 12:28:24;;;;;;;4.18;1.98;;;23.70;77.40;;;;;;5028137;28;20036;-73
2022/05/22 12:30:53;;;;;;;3.95;1.77;;;23.80;77.60;;;;;;5030453;28;20114;-73
2022/05/22 12:33:19;;;;;;;6.60;2.13;;;24.00;76.60;;;;;;5033934;28;20851;-73
2022/05/22 12:35:45;;;;;;;3.53;1.38;;;24.10;76.60;;;;;;5033548;28;20059;-73
2022/05/22 12:38:13;;;;;;;2.83;1.58;;;24.20;76.20;;;;;;5016423;28;20053;-74
2022/05/22 12:41:07;;;;;;;2.03;1.40;;;24.40;76.50;;;;;;5034471;28;20052;-73
2022/05/22 12:43:34;;;;;;;3.42;1.60;;;24.40;76.40;;;;;;5032627;28;20041;-73
2022/05/22 12:46:03;;;;;;;3.35;1.70;;;24.40;76.20;;;;;;5016446;28;20053;-74
2022/05/22 12:48:37;;;;;;;2.97;1.70;;;24.10;76.30;;;;;;5033423;28;20156;-73
2022/05/22 12:51:15;;;;;;;3.50;1.90;;;24.00;76.30;;;;;;5033320;28;20788;-73
2022/05/22 12:53:43;;;;;;;3.47;1.75;;;24.10;76.50;;;;;;5029482;28;20057;-74
2022/05/22 12:56:31;;;;;;;3.38;1.52;;;24.20;76.00;;;;;;5032004;28;20056;-75
2022/05/22 12:59:15;;;;;;;4.20;1.40;;;24.30;75.00;;;;;;5036051;28;20049;-73
2022/05/22 13:01:42;;;;;;;3.58;1.50;;;24.00;74.40;;;;;;5036272;28;20049;-74
2022/05/22 13:04:33;;;;;;;1.75;1.40;;;23.90;75.80;;;;;;5019103;28;20189;-73
2022/05/22 13:07:13;;;;;;;3.88;1.70;;;23.70;73.90;;;;;;5033242;28;20053;-73
2022/05/22 13:09:51;;;;;;;2.75;1.45;;;23.30;76.00;;;;;;5034305;28;20045;-74
2022/05/22 13:12:16;;;;;;;4.95;1.70;;;23.10;76.90;;;;;;5033022;28;20115;-73
2022/05/22 13:14:52;;;;;;;5.20;1.52;;;23.00;77.80;;;;;;5035307;28;20051;-73
2022/05/22 13:17:50;;;;;;;4.38;1.73;;;23.00;79.40;;;;;;5036234;28;20049;-73
2022/05/22 13:20:31;;;;;;;4.57;1.52;;;23.10;79.50;;;;;;5035410;28;20128;-73
2022/05/22 13:23:12;;;;;;;2.33;1.30;;;23.10;77.60;;;;;;5032964;28;20155;-73